createdAt,value
2022-09-02T00:01:31.456Z,22.69
2022-09-02T00:04:05.480Z,22.64
2022-09-02T00:06:33.559Z,22.63
2022-09-02T00:09:01.434Z,22.60
2022-09-02T00:11:34.386Z,22.59
2022-09-02T00:14:05.330Z,22.56
2022-09-02T00:16:33.454Z,22.54
2022-09-02T00:19:02.616Z,22.52
2022-09-02T00:21:32.945Z,22.51
2022-09-02T00:24:00.597Z,22.49
2022-09-02T00:26:27.453Z,22.44
2022-09-02T00:28:56.221Z,22.45
2022-09-02T00:31:25.970Z,22.41
2022-09-02T00:33:53.439Z,22.38
2022-09-02T00:36:20.715Z,22.35
2022-09-02T00:38:47.821Z,22.30
2022-09-02T00:41:15.000Z,22.28
2022-09-02T00:43:44.144Z,22.26
2022-09-02T00:46:13.988Z,22.25
2022-09-02T00:48:49.670Z,22.24
2022-09-02T00:51:17.139Z,22.20
2022-09-02T00:53:47.214Z,22.20
2022-09-02T00:56:26.953Z,22.16
2022-09-02T00:58:55.996Z,22.13
2022-09-02T01:01:23.532Z,22.12
2022-09-02T01:03:51.730Z,22.09
2022-09-02T01:06:27.494Z,22.08
2022-09-02T01:09:08.361Z,22.05
2022-09-02T01:11:47.963Z,22.03
2022-09-02T01:14:16.677Z,21.99
2022-09-02T01:16:53.129Z,21.98
2022-09-02T01:19:41.999Z,21.96
2022-09-02T01:22:22.548Z,21.92
2022-09-02T01:24:49.738Z,21.91
2022-09-02T01:27:20.429Z,21.88
2022-09-02T01:29:57.692Z,21.83
2022-09-02T01:32:26.726Z,21.81
2022-09-02T01:34:53.742Z,21.78
2022-09-02T01:37:21.428Z,21.76
2022-09-02T01:39:49.326Z,21.74
2022-09-02T01:42:16.719Z,21.72
2022-09-02T01:44:46.105Z,21.68
2022-09-02T01:47:24.330Z,21.65
2022-09-02T01:49:52.536Z,21.63
2022-09-02T01:52:22.778Z,21.61
2022-09-02T01:54:49.951Z,21.60
2022-09-02T01:57:17.199Z,21.57
2022-09-02T01:59:46.056Z,21.55
2022-09-02T02:02:14.074Z,21.53
2022-09-02T02:04:41.490Z,21.51
2022-09-02T02:07:08.235Z,21.48
2022-09-02T02:09:35.218Z,21.47
2022-09-02T02:12:02.138Z,21.46
2022-09-02T02:14:30.440Z,21.47
2022-09-02T02:16:57.328Z,21.46
2022-09-02T02:19:24.280Z,21.42
2022-09-02T02:21:51.062Z,21.42
2022-09-02T02:24:17.856Z,21.40
2022-09-02T02:26:45.153Z,21.40
2022-09-02T02:29:13.366Z,21.37
2022-09-02T02:31:40.865Z,21.37
2022-09-02T02:34:07.744Z,21.33
2022-09-02T02:36:35.386Z,21.34
2022-09-02T02:39:02.617Z,21.31
2022-09-02T02:41:33.586Z,21.30
2022-09-02T02:44:00.497Z,21.27
2022-09-02T02:46:31.052Z,21.21
2022-09-02T02:49:01.520Z,21.19
2022-09-02T02:51:28.678Z,21.17
2022-09-02T02:53:58.687Z,21.16
2022-09-02T02:56:25.976Z,21.16
2022-09-02T02:58:52.754Z,21.15
2022-09-02T03:01:19.587Z,21.17
2022-09-02T03:03:46.449Z,21.17
2022-09-02T03:06:13.340Z,21.18
2022-09-02T03:08:40.176Z,21.18
2022-09-02T03:11:07.075Z,21.18
2022-09-02T03:13:35.595Z,21.14
2022-09-02T03:16:06.270Z,21.13
2022-09-02T03:18:34.954Z,21.12
2022-09-02T03:21:02.251Z,21.11
2022-09-02T03:23:29.025Z,21.10
2022-09-02T03:25:55.851Z,21.08
2022-09-02T03:28:22.628Z,21.10
2022-09-02T03:30:49.454Z,21.10
2022-09-02T03:33:16.661Z,21.08
2022-09-02T03:35:45.678Z,21.07
2022-09-02T03:38:13.309Z,21.08
2022-09-02T03:40:41.603Z,21.06
2022-09-02T03:43:08.563Z,21.06
2022-09-02T03:45:35.396Z,21.05
2022-09-02T03:48:02.636Z,21.07
2022-09-02T03:50:37.734Z,21.04
2022-09-02T03:53:04.930Z,21.03
2022-09-02T03:55:32.201Z,21.02
2022-09-02T03:57:59.508Z,21.01
2022-09-02T04:00:29.861Z,21.02
2022-09-02T04:02:56.747Z,21.00
2022-09-02T04:05:24.665Z,21.00
2022-09-02T04:07:52.601Z,20.97
2022-09-02T04:10:21.825Z,20.97
2022-09-02T04:12:50.064Z,20.96
2022-09-02T04:15:19.325Z,20.93
2022-09-02T04:17:46.447Z,20.91
2022-09-02T04:20:14.209Z,20.95
2022-09-02T04:22:41.566Z,20.90
2022-09-02T04:25:09.609Z,20.87
2022-09-02T04:27:36.944Z,20.87
2022-09-02T04:30:05.302Z,20.86
2022-09-02T04:32:35.830Z,20.83
2022-09-02T04:35:07.004Z,20.85
2022-09-02T04:37:33.936Z,20.80
2022-09-02T04:40:01.685Z,20.81
2022-09-02T04:42:28.468Z,20.83
2022-09-02T04:44:56.527Z,20.82
2022-09-02T04:47:24.097Z,20.82
2022-09-02T04:49:51.765Z,20.82
2022-09-02T04:52:20.504Z,20.81
2022-09-02T04:54:47.945Z,20.81
2022-09-02T04:57:14.883Z,20.80
2022-09-02T04:59:41.948Z,20.77
2022-09-02T05:02:09.205Z,20.77
2022-09-02T05:04:37.728Z,20.75
2022-09-02T05:07:04.601Z,20.73
2022-09-02T05:09:32.260Z,20.71
2022-09-02T05:12:03.477Z,20.71
2022-09-02T05:14:31.577Z,20.71
2022-09-02T05:17:03.855Z,20.70
2022-09-02T05:19:34.218Z,20.65
2022-09-02T05:22:01.876Z,20.68
2022-09-02T05:24:29.536Z,20.70
2022-09-02T05:26:56.546Z,20.69
2022-09-02T05:29:23.816Z,20.70
2022-09-02T05:31:50.883Z,20.74
2022-09-02T05:34:18.541Z,20.78
2022-09-02T05:36:46.482Z,20.80
2022-09-02T05:39:14.048Z,20.86
2022-09-02T05:41:42.278Z,20.91
2022-09-02T05:44:09.374Z,20.95
2022-09-02T05:46:36.904Z,21.00
2022-09-02T05:49:17.590Z,21.04
2022-09-02T05:52:00.204Z,21.04
2022-09-02T05:54:33.172Z,21.10
2022-09-02T05:57:04.799Z,21.11
2022-09-02T05:59:36.818Z,21.18
2022-09-02T06:02:03.859Z,21.18
2022-09-02T06:04:32.153Z,21.21
2022-09-02T06:06:59.020Z,21.22
2022-09-02T06:09:25.931Z,21.29
2022-09-02T06:11:52.807Z,21.35
2022-09-02T06:14:29.850Z,21.44
2022-09-02T06:16:59.024Z,21.54
2022-09-02T06:19:47.422Z,21.70
2022-09-02T06:22:19.088Z,21.86
2022-09-02T06:24:48.335Z,22.06
2022-09-02T06:27:17.284Z,22.29
2022-09-02T06:29:44.434Z,22.50
2022-09-02T06:32:27.280Z,22.72
2022-09-02T06:35:09.708Z,22.92
2022-09-02T06:37:47.850Z,23.12
2022-09-02T06:40:18.868Z,23.39
2022-09-02T06:42:46.040Z,23.64
2022-09-02T06:45:13.173Z,23.88
2022-09-02T06:47:42.461Z,24.18
2022-09-02T06:50:11.566Z,24.35
2022-09-02T06:52:40.933Z,24.61
2022-09-02T06:55:14.963Z,24.87
2022-09-02T06:57:45.865Z,25.14
2022-09-02T07:00:19.596Z,25.53
2022-09-02T07:03:06.431Z,25.97
2022-09-02T07:05:41.794Z,26.44
2022-09-02T07:08:19.058Z,26.81
2022-09-02T07:10:46.242Z,27.16
2022-09-02T07:13:14.361Z,27.49
2022-09-02T07:15:42.912Z,27.70
2022-09-02T07:18:09.892Z,27.85
2022-09-02T07:20:37.092Z,28.09
2022-09-02T07:23:06.134Z,28.34
2022-09-02T07:25:34.701Z,28.61
2022-09-02T07:28:05.048Z,28.92
2022-09-02T07:30:40.104Z,29.23
2022-09-02T07:33:07.293Z,29.48
2022-09-02T07:35:38.404Z,29.74
2022-09-02T07:38:06.745Z,30.03
2022-09-02T07:40:36.451Z,30.30
2022-09-02T07:43:07.796Z,30.51
2022-09-02T07:45:41.162Z,30.74
2022-09-02T07:48:09.406Z,31.04
2022-09-02T07:50:39.011Z,31.28
2022-09-02T07:53:07.596Z,31.47
2022-09-02T07:55:37.272Z,31.64
2022-09-02T08:01:01.110Z,32.12
2022-09-02T08:03:30.910Z,32.28
2022-09-02T08:05:59.454Z,32.51
2022-09-02T08:08:32.222Z,32.75
2022-09-02T08:11:03.169Z,33.00
2022-09-02T08:13:34.833Z,33.15
2022-09-02T08:16:07.660Z,33.33
2022-09-02T08:18:46.147Z,33.53
2022-09-02T08:21:16.366Z,33.57
2022-09-02T08:23:45.673Z,33.49
2022-09-02T08:26:19.094Z,33.33
2022-09-02T08:28:46.181Z,33.15
2022-09-02T08:31:15.080Z,32.97
2022-09-02T08:33:46.681Z,32.82
2022-09-02T08:36:20.288Z,32.67
2022-09-02T08:38:47.542Z,32.64
2022-09-02T08:45:39.703Z,32.82
2022-09-02T08:49:27.504Z,33.08
2022-09-02T08:52:01.703Z,33.29
2022-09-02T08:54:53.055Z,33.42
2022-09-02T08:57:20.292Z,33.54
2022-09-02T08:59:53.449Z,33.80
2022-09-02T09:03:18.797Z,34.23
2022-09-02T09:06:19.261Z,34.71
2022-09-02T09:09:37.326Z,35.00
2022-09-02T09:12:35.723Z,35.17
2022-09-02T09:15:21.198Z,35.40
2022-09-02T09:18:09.499Z,35.53
2022-09-02T09:20:44.575Z,35.64
2022-09-02T09:23:40.324Z,35.73
2022-09-02T09:26:12.881Z,35.79
2022-09-02T09:28:46.053Z,35.94
2022-09-02T09:31:22.154Z,36.04
2022-09-02T09:34:09.497Z,36.13
2022-09-02T09:36:52.011Z,36.38
2022-09-02T09:39:35.649Z,36.55
2022-09-02T09:42:16.226Z,36.57
2022-09-02T09:44:54.057Z,36.42
2022-09-02T09:47:25.919Z,36.32
2022-09-02T09:50:22.310Z,36.24
2022-09-02T09:52:49.306Z,36.31
2022-09-02T09:55:24.899Z,36.43
2022-09-02T09:57:54.111Z,36.58
2022-09-02T10:00:32.095Z,36.58
2022-09-02T10:03:06.799Z,36.60
2022-09-02T10:05:39.120Z,36.67
2022-09-02T10:08:33.918Z,36.76
2022-09-02T10:11:05.457Z,36.99
2022-09-02T10:13:36.823Z,37.13
2022-09-02T10:16:34.019Z,37.27
2022-09-02T10:19:48.605Z,37.12
2022-09-02T10:22:37.646Z,36.58
2022-09-02T10:25:34.883Z,36.00
2022-09-02T10:28:29.820Z,35.69
2022-09-02T10:31:08.815Z,35.65
2022-09-02T10:34:33.684Z,35.57
2022-09-02T10:37:25.610Z,35.35
2022-09-02T10:40:29.813Z,35.18
2022-09-02T10:43:05.333Z,35.28
2022-09-02T10:45:46.829Z,35.42
2022-09-02T10:49:26.228Z,35.44
2022-09-02T10:52:27.392Z,35.22
2022-09-02T10:55:42.812Z,35.05
2022-09-02T10:58:39.803Z,35.04
2022-09-02T11:01:21.881Z,34.93
2022-09-02T11:04:08.027Z,34.55
2022-09-02T11:07:02.110Z,34.11
2022-09-02T11:09:51.228Z,33.87
2022-09-02T11:12:33.372Z,33.68
2022-09-02T11:15:22.078Z,33.37
2022-09-02T11:18:55.730Z,32.95
2022-09-02T11:21:57.068Z,32.79
2022-09-02T11:24:51.001Z,32.69
2022-09-02T11:27:44.301Z,32.69
2022-09-02T11:30:29.469Z,32.62
2022-09-02T11:33:44.079Z,32.60
2022-09-02T11:36:23.208Z,32.81
2022-09-02T11:39:30.502Z,33.06
2022-09-02T11:42:45.810Z,32.85
2022-09-02T11:45:59.267Z,32.51
2022-09-02T11:49:11.333Z,32.40
2022-09-02T11:52:35.877Z,32.42
2022-09-02T11:55:25.792Z,32.58
2022-09-02T11:57:58.784Z,32.49
2022-09-02T12:00:58.731Z,32.28
2022-09-02T12:03:52.102Z,32.15
2022-09-02T12:06:28.939Z,32.04
2022-09-02T12:09:04.650Z,31.98
2022-09-02T12:11:41.802Z,31.92
2022-09-02T12:14:32.739Z,31.82
2022-09-02T12:18:08.896Z,31.75
2022-09-02T12:20:49.246Z,31.70
2022-09-02T12:23:54.832Z,31.57
2022-09-02T12:26:45.062Z,31.45
2022-09-02T12:29:20.689Z,31.35
2022-09-02T12:31:50.543Z,31.25
2022-09-02T12:34:20.576Z,31.17
2022-09-02T12:36:52.161Z,31.12
2022-09-02T12:39:25.574Z,31.02
2022-09-02T12:42:11.852Z,30.90
2022-09-02T12:45:12.293Z,30.71
2022-09-02T12:48:06.690Z,30.64
2022-09-02T12:50:54.773Z,30.63
2022-09-02T12:53:33.047Z,30.67
2022-09-02T12:56:21.092Z,30.69
2022-09-02T12:58:54.790Z,30.73
2022-09-02T13:01:54.657Z,30.73
2022-09-02T13:05:01.087Z,30.65
2022-09-02T13:08:17.681Z,30.54
2022-09-02T13:11:28.263Z,30.38
2022-09-02T13:14:33.440Z,30.34
2022-09-02T13:17:36.540Z,30.31
2022-09-02T13:20:10.098Z,30.29
2022-09-02T13:23:09.015Z,30.22
2022-09-02T13:26:49.721Z,30.14
2022-09-02T13:29:53.448Z,30.06
2022-09-02T13:32:20.319Z,30.05
2022-09-02T13:34:50.948Z,30.08
2022-09-02T13:37:38.632Z,30.06
2022-09-02T13:40:14.368Z,30.12
2022-09-02T13:42:50.718Z,30.13
2022-09-02T13:45:24.215Z,30.14
2022-09-02T13:47:58.631Z,30.10
2022-09-02T13:50:30.053Z,30.05
2022-09-02T13:55:57.727Z,29.99
2022-09-02T13:58:35.259Z,29.99
2022-09-02T14:01:27.070Z,29.95
2022-09-02T14:03:58.329Z,29.92
2022-09-02T14:06:36.651Z,29.90
2022-09-02T14:09:08.649Z,29.88
2022-09-02T14:11:48.166Z,29.88
2022-09-02T14:14:18.728Z,29.87
2022-09-02T14:16:45.743Z,29.86
2022-09-02T14:19:25.271Z,29.87
2022-09-02T14:21:56.589Z,29.90
2022-09-02T14:24:27.541Z,29.88
2022-09-02T14:26:59.901Z,29.87
2022-09-02T14:29:31.941Z,29.90
2022-09-02T14:32:28.692Z,29.88
2022-09-02T14:35:22.434Z,29.87
2022-09-02T14:37:57.680Z,29.86
2022-09-02T14:40:43.264Z,29.78
2022-09-02T14:43:16.621Z,29.74
2022-09-02T14:45:50.341Z,29.70
2022-09-02T14:48:23.754Z,29.66
2022-09-02T14:51:02.677Z,29.62
2022-09-02T14:53:30.133Z,29.58
2022-09-02T14:55:58.066Z,29.59
2022-09-02T14:58:27.747Z,29.62
2022-09-02T15:01:02.358Z,29.63
2022-09-02T15:03:31.687Z,29.62
2022-09-02T15:05:58.552Z,29.56
2022-09-02T15:08:25.794Z,29.49
2022-09-02T15:10:54.701Z,29.45
2022-09-02T15:13:33.682Z,29.38
2022-09-02T15:16:02.772Z,29.34
2022-09-02T15:18:30.059Z,29.32
2022-09-02T15:20:57.526Z,29.29
2022-09-02T15:23:24.869Z,29.27
2022-09-02T15:25:54.073Z,29.27
2022-09-02T15:28:21.220Z,29.26
2022-09-02T15:30:48.104Z,29.28
2022-09-02T15:33:19.834Z,29.28
2022-09-02T15:35:47.513Z,29.29
2022-09-02T15:38:14.557Z,29.27
2022-09-02T15:40:41.423Z,29.25
2022-09-02T15:43:08.268Z,29.21
2022-09-02T15:45:35.602Z,29.17
2022-09-02T15:48:02.606Z,29.13
2022-09-02T15:50:33.966Z,29.11
2022-09-02T15:53:01.220Z,29.04
2022-09-02T15:55:31.331Z,29.03
2022-09-02T15:57:58.143Z,29.00
2022-09-02T16:00:27.608Z,28.97
2022-09-02T16:02:56.912Z,28.94
2022-09-02T16:05:24.127Z,28.93
2022-09-02T16:07:55.007Z,28.95
2022-09-02T16:10:22.139Z,28.95
2022-09-02T16:12:49.164Z,28.93
2022-09-02T16:15:16.070Z,28.93
2022-09-02T16:17:42.870Z,28.93
2022-09-02T16:20:10.207Z,28.91
2022-09-02T16:22:37.358Z,28.90
2022-09-02T16:25:04.752Z,28.86
2022-09-02T16:27:50.244Z,28.86
2022-09-02T16:30:17.423Z,28.82
2022-09-02T16:32:44.470Z,28.81
2022-09-02T16:35:11.232Z,28.79
2022-09-02T16:37:38.080Z,28.77
2022-09-02T16:40:06.191Z,28.72
2022-09-02T16:42:37.454Z,28.70
2022-09-02T16:45:05.650Z,28.65
2022-09-02T16:47:32.393Z,28.62
2022-09-02T16:49:59.149Z,28.57
2022-09-02T16:52:25.901Z,28.55
2022-09-02T16:54:52.675Z,28.53
2022-09-02T16:57:19.410Z,28.50
2022-09-02T16:59:46.246Z,28.47
2022-09-02T17:02:13.064Z,28.41
2022-09-02T17:04:39.821Z,28.33
2022-09-02T17:07:06.716Z,28.27
2022-09-02T17:09:33.456Z,28.20
2022-09-02T17:12:00.215Z,28.13
2022-09-02T17:14:27.143Z,28.08
2022-09-02T17:16:53.993Z,28.02
2022-09-02T17:19:22.324Z,27.94
2022-09-02T17:21:54.697Z,27.87
2022-09-02T17:24:27.727Z,27.85
2022-09-02T17:26:55.831Z,27.78
2022-09-02T17:32:17.947Z,27.64
2022-09-02T17:34:44.894Z,27.60
2022-09-02T17:37:11.667Z,27.55
2022-09-02T17:39:38.551Z,27.52
2022-09-02T17:42:06.562Z,27.47
2022-09-02T17:44:38.300Z,27.43
2022-09-02T17:47:11.282Z,27.41
2022-09-02T17:49:43.963Z,27.35
2022-09-02T17:52:15.443Z,27.31
2022-09-02T17:54:43.271Z,27.22
2022-09-02T17:57:50.544Z,27.14
2022-09-02T18:00:22.386Z,27.08
2022-09-02T18:03:31.728Z,26.99
2022-09-02T18:06:28.158Z,26.91
2022-09-02T18:09:02.366Z,26.87
2022-09-02T18:11:30.453Z,26.82
2022-09-02T18:14:40.665Z,26.72
2022-09-02T18:17:36.949Z,26.64
2022-09-02T18:20:10.509Z,26.59
2022-09-02T18:23:09.066Z,26.55
2022-09-02T18:25:57.229Z,26.43
2022-09-02T18:28:40.767Z,26.39
2022-09-02T18:31:24.718Z,26.31
2022-09-02T18:34:17.687Z,26.22
2022-09-02T18:37:13.610Z,26.16
2022-09-02T18:40:09.574Z,26.08
2022-09-02T18:43:03.223Z,26.02
2022-09-02T18:45:48.208Z,25.93
2022-09-02T18:48:32.452Z,25.89
2022-09-02T18:51:12.915Z,25.86
2022-09-02T18:54:09.138Z,25.78
2022-09-02T18:56:37.145Z,25.76
2022-09-02T18:59:15.261Z,25.71
2022-09-02T19:01:54.733Z,25.67
2022-09-02T19:04:29.455Z,25.60
2022-09-02T19:07:17.325Z,25.56
2022-09-02T19:09:44.301Z,25.51
2022-09-02T19:12:11.649Z,25.48
2022-09-02T19:14:40.955Z,25.43
2022-09-02T19:17:09.318Z,25.38
2022-09-02T19:19:36.122Z,25.32
2022-09-02T19:22:10.340Z,25.28
2022-09-02T19:24:45.279Z,25.21
2022-09-02T19:27:23.619Z,25.15
2022-09-02T19:29:59.638Z,25.11
2022-09-02T19:32:33.176Z,25.06
2022-09-02T19:35:05.684Z,25.03
2022-09-02T19:37:32.492Z,24.99
2022-09-02T19:40:07.108Z,24.98
2022-09-02T19:42:33.883Z,24.93
2022-09-02T19:45:00.812Z,24.89
2022-09-02T19:50:14.875Z,24.81
2022-09-02T19:52:45.742Z,24.78
2022-09-02T19:55:16.703Z,24.73
2022-09-02T19:57:45.012Z,24.65
2022-09-02T20:00:14.048Z,24.59
2022-09-02T20:02:41.100Z,24.55
2022-09-02T20:05:13.602Z,24.49
2022-09-02T20:07:41.060Z,24.45
2022-09-02T20:10:09.219Z,24.40
2022-09-02T20:12:36.611Z,24.35
2022-09-02T20:15:06.695Z,24.33
2022-09-02T20:17:33.673Z,24.29
2022-09-02T20:20:19.310Z,24.24
2022-09-02T20:22:55.186Z,24.19
2022-09-02T20:25:38.812Z,24.14
2022-09-02T20:28:45.648Z,24.05
2022-09-02T20:31:50.085Z,23.98
2022-09-02T20:34:35.706Z,23.95
2022-09-02T20:37:56.553Z,23.91
2022-09-02T20:40:36.698Z,23.90
2022-09-02T20:43:41.233Z,23.88
2022-09-02T20:46:53.422Z,23.79
2022-09-02T20:50:04.520Z,23.74
2022-09-02T20:52:55.638Z,23.68
2022-09-02T20:55:33.006Z,23.65
2022-09-02T20:58:33.037Z,23.61
2022-09-02T21:01:10.744Z,23.59
2022-09-02T21:03:51.730Z,23.58
2022-09-02T21:06:24.014Z,23.57
2022-09-02T21:09:06.958Z,23.57
2022-09-02T21:11:47.965Z,23.59
2022-09-02T21:14:25.123Z,23.61
2022-09-02T21:17:04.701Z,23.62
2022-09-02T21:19:36.418Z,23.63
2022-09-02T21:22:33.762Z,23.63
2022-09-02T21:25:11.913Z,23.64
2022-09-02T21:28:03.130Z,23.64
2022-09-02T21:30:40.678Z,23.63
2022-09-02T21:33:13.070Z,23.63
2022-09-02T21:35:45.690Z,23.62
2022-09-02T21:38:41.028Z,23.56
2022-09-02T21:41:27.069Z,23.52
2022-09-02T21:44:22.561Z,23.44
2022-09-02T21:47:03.895Z,23.39
2022-09-02T21:50:18.703Z,23.28
2022-09-02T21:53:00.570Z,23.21
2022-09-02T21:56:16.746Z,23.13
2022-09-02T21:58:57.288Z,23.04
2022-09-02T22:01:44.787Z,22.97
2022-09-02T22:04:45.378Z,22.90
2022-09-02T22:07:31.171Z,22.82
2022-09-02T22:10:36.381Z,22.73
2022-09-02T22:13:05.353Z,22.69
2022-09-02T22:16:14.813Z,22.60
2022-09-02T22:19:00.608Z,22.51
2022-09-02T22:22:01.281Z,22.42
2022-09-02T22:24:31.035Z,22.38
2022-09-02T22:27:09.019Z,22.34
2022-09-02T22:30:06.961Z,22.25
2022-09-02T22:32:40.412Z,22.20
2022-09-02T22:35:55.606Z,22.09
2022-09-02T22:38:36.078Z,22.04
2022-09-02T22:41:42.149Z,21.98
2022-09-02T22:44:55.515Z,21.92
2022-09-02T22:47:43.152Z,21.87
2022-09-02T22:50:39.057Z,21.82
2022-09-02T22:53:05.843Z,21.78
2022-09-02T22:55:58.817Z,21.75
2022-09-02T22:59:02.912Z,21.71
2022-09-02T23:02:08.981Z,21.64
2022-09-02T23:05:36.855Z,21.56
2022-09-02T23:08:07.208Z,21.52
2022-09-02T23:10:57.042Z,21.49
2022-09-02T23:13:57.045Z,21.45
2022-09-02T23:17:04.970Z,21.39
2022-09-02T23:20:02.738Z,21.35
2022-09-02T23:23:06.931Z,21.29
2022-09-02T23:25:47.495Z,21.30
2022-09-02T23:28:40.865Z,21.27
2022-09-02T23:31:30.448Z,21.24
2022-09-02T23:34:28.389Z,21.23
2022-09-02T23:37:16.856Z,21.24
2022-09-02T23:40:26.130Z,21.21
2022-09-02T23:42:54.180Z,21.20
2022-09-02T23:45:30.394Z,21.19
2022-09-02T23:48:44.049Z,21.14
2022-09-02T23:51:29.622Z,21.12
2022-09-02T23:54:12.265Z,21.11
2022-09-02T23:57:20.379Z,21.11
